Time;durP1;ratioP1;P1;durP2;ratioP2;P2;SDS_P1;SDS_P2;PMS_P1;PMS_P2;Temp;Humidity;BMP_temperature;BMP_pressure;BME280_temperature;BME280_humidity;BME280_pressure;Samples;Min_cycle;Max_cycle;Signal;HPM_P1;HPM_P2
2020/12/03 00:00:07;;;;;;;;;;;;;;;;;;4953845;28;896;-63
2020/12/03 00:02:32;;;;;;;;;;;;;;;;;;4953791;28;1433;-61
2020/12/03 00:04:57;;;;;;;;;;;;;;;;;;4984586;28;885;-57
2020/12/03 00:07:23;;;;;;;;;;;;;;;;;;4984851;28;947;-60
2020/12/03 00:09:49;;;;;;;;;;;;;;;;;;4952077;29;2019;-58
2020/12/03 00:12:14;;;;;;;;;;;;;;;;;;4984817;28;1448;-60
2020/12/03 00:14:39;;;;;;;;;;;;;;;;;;4953515;28;1233;-58
2020/12/03 00:17:05;;;;;;;;;;;;;;;;;;4952102;29;1219;-57
2020/12/03 00:19:32;;;;;;;;;;;;;;;;;;4953447;28;941;-61
2020/12/03 00:21:59;;;;;;;;;;;;;;;;;;4952166;28;1323;-61
2020/12/03 00:24:26;;;;;;;;;;;;;;;;;;4953565;28;910;-61
2020/12/03 00:26:51;;;;;;;;;;;;;;;;;;4953061;28;1515;-64
2020/12/03 00:29:18;;;;;;;;;;;;;;;;;;4952953;28;1903;-64
2020/12/03 00:31:44;;;;;;;;;;;;;;;;;;4984617;28;1400;-64
2020/12/03 00:34:10;;;;;;;;;;;;;;;;;;4952306;28;944;-61
2020/12/03 00:36:35;;;;;;;;;;;;;;;;;;4953191;28;873;-65
2020/12/03 00:39:01;;;;;;;;;;;;;;;;;;5001093;28;1650;-61
2020/12/03 00:41:26;;;;;;;;;;;;;;;;;;4952754;29;1456;-61
2020/12/03 00:43:52;;;;;;;;;;;;;;;;;;4953679;28;870;-58
2020/12/03 00:46:17;;;;;;;;;;;;;;;;;;4953373;28;874;-57
2020/12/03 00:48:42;;;;;;;;;;;;;;;;;;4953876;28;1902;-63
2020/12/03 00:51:11;;;;;;;;;;;;;;;;;;4953693;28;829;-61
2020/12/03 00:53:37;;;;;;;;;;;;;;;;;;4953480;28;920;-62
2020/12/03 00:56:02;;;;;;;;;;;;;;;;;;4953452;28;810;-60
2020/12/03 00:58:27;;;;;;;;;;;;;;;;;;4953651;28;865;-65
2020/12/03 01:00:52;;;;;;;;;;;;;;;;;;4952503;29;1547;-60
2020/12/03 01:03:18;;;;;;;;;;;;;;;;;;4953225;28;1409;-65
2020/12/03 01:05:43;;;;;;;;;;;;;;;;;;4953436;28;920;-63
2020/12/03 01:08:08;;;;;;;;;;;;;;;;;;4984352;28;1894;-58
2020/12/03 01:10:34;;;;;;;;;;;;;;;;;;4953913;28;1004;-59
2020/12/03 01:13:00;;;;;;;;;;;;;;;;;;4952983;28;1409;-59
2020/12/03 01:15:25;;;;;;;;;;;;;;;;;;4953347;28;806;-65
2020/12/03 01:17:51;;;;;;;;;;;;;;;;;;4953248;28;786;-62
2020/12/03 01:20:21;;;;;;;;;;;;;;;;;;4952405;28;1387;-63
2020/12/03 01:22:46;;;;;;;;;;;;;;;;;;4952920;28;1358;-62
2020/12/03 01:25:12;;;;;;;;;;;;;;;;;;4984053;28;954;-63
2020/12/03 01:27:37;;;;;;;;;;;;;;;;;;4951984;29;1899;-62
2020/12/03 01:30:06;;;;;;;;;;;;;;;;;;4984337;28;834;-61
2020/12/03 01:32:31;;;;;;;;;;;;;;;;;;4952977;28;1322;-60
2020/12/03 01:34:56;;;;;;;;;;;;;;;;;;4983885;28;1740;-64
2020/12/03 01:37:22;;;;;;;;;;;;;;;;;;4952026;28;1145;-63
2020/12/03 01:39:47;;;;;;;;;;;;;;;;;;4952934;28;933;-62
2020/12/03 01:42:13;;;;;;;;;;;;;;;;;;4952958;28;1425;-64
2020/12/03 01:44:38;;;;;;;;;;;;;;;;;;4953015;28;890;-61
2020/12/03 01:47:03;;;;;;;;;;;;;;;;;;4951589;28;814;-65
2020/12/03 01:49:30;;;;;;;;;;;;;;;;;;4983939;28;1894;-63
2020/12/03 01:51:56;;;;;;;;;;;;;;;;;;4952713;28;1326;-64
2020/12/03 01:54:40;;;;;;;;;;;;;;;;;;4952744;28;909;-63
2020/12/03 02:00:21;;;;;;;;;;;;;;;;;;5012592;28;1294;-59
2020/12/03 02:09:17;;;;;;;;;;;;;;;;;;4991330;28;1966;-65
2020/12/03 02:24:07;;;;;;;;;;;;;;;;;;4949723;28;1354;-63
2020/12/03 02:26:32;;;;;;;;;;;;;;;;;;4944281;28;1138;-65
2020/12/03 02:28:58;;;;;;;;;;;;;;;;;;4932930;28;1910;-64
2020/12/03 02:31:23;;;;;;;;;;;;;;;;;;4933486;28;1338;-63
2020/12/03 02:33:48;;;;;;;;;;;;;;;;;;4933152;28;828;-63
2020/12/03 06:16:02;;;;;;;;;;;;;;;;;;5053832;28;784;-58
2020/12/03 06:18:35;;;;;;;;;;;;;;;;;;5054229;28;920;-63
2020/12/03 06:21:07;;;;;;;;;;;;;;;;;;5053955;28;1012;-56
2020/12/03 06:23:32;;;;;;;;;;;;;;;;;;5053896;28;1914;-58
2020/12/03 06:26:16;;;;;;;;;;;;;;;;;;5052208;28;1469;-60
2020/12/03 06:28:50;;;;;;;;;;;;;;;;;;5054063;28;1019;-63
2020/12/03 06:31:24;;;;;;;;;;;;;;;;;;5053683;28;1302;-62
2020/12/03 06:33:59;;;;;;;;;;;;;;;;;;5052399;28;1203;-58
2020/12/03 06:36:35;;;;;;;;;;;;;;;;;;5053898;28;813;-61
2020/12/03 06:39:03;;;;;;;;;;;;;;;;;;5053316;28;864;-62
2020/12/03 06:41:42;;;;;;;;;;;;;;;;;;5056525;28;1541;-62
2020/12/03 06:44:13;;;;;;;;;;;;;;;;;;5064306;28;1897;-60
2020/12/03 06:46:50;;;;;;;;;;;;;;;;;;5073542;28;797;-60
2020/12/03 06:49:21;;;;;;;;;;;;;;;;;;5072334;28;1286;-62
2020/12/03 07:01:17;;;;;;;;;;;;;;;;;;4989018;28;1385;-60
2020/12/03 07:03:51;;;;;;;;;;;;;;;;;;5017999;28;1894;-56
2020/12/03 07:06:38;;;;;;;;;;;;;;;;;;5053292;28;802;-63
2020/12/03 07:09:12;;;;;;;;;;;;;;;;;;5057755;28;1513;-58
2020/12/03 07:11:50;;;;;;;;;;;;;;;;;;5064421;28;1377;-59
2020/12/03 07:14:42;;;;;;;;;;;;;;;;;;5073197;28;895;-59
2020/12/03 07:17:10;;;;;;;;;;;;;;;;;;5070710;28;1585;-59
2020/12/03 07:19:54;;;;;;;;;;;;;;;;;;5072234;28;932;-56
2020/12/03 07:22:25;;;;;;;;;;;;;;;;;;5072246;28;1372;-60
2020/12/03 07:24:51;;;;;;;;;;;;;;;;;;5071786;28;2361;-60
2020/12/03 07:27:42;;;;;;;;;;;;;;;;;;5073119;28;825;-60
2020/12/03 07:30:24;;;;;;;;;;;;;;;;;;5071061;28;1312;-60
2020/12/03 07:33:13;;;;;;;;;;;;;;;;;;5073091;28;1404;-60
2020/12/03 07:35:46;;;;;;;;;;;;;;;;;;5097256;28;2462;-63
2020/12/03 07:38:25;;;;;;;;;;;;;;;;;;5072868;28;786;-57
2020/12/03 07:40:51;;;;;;;;;;;;;;;;;;5072162;28;1652;-62
2020/12/03 07:43:37;;;;;;;;;;;;;;;;;;5071569;28;1897;-60
2020/12/03 07:46:22;;;;;;;;;;;;;;;;;;5072042;28;1434;-61
2020/12/03 07:48:47;;;;;;;;;;;;;;;;;;5073105;28;1306;-62
2020/12/03 07:51:16;;;;;;;;;;;;;;;;;;5076046;28;1333;-57
2020/12/03 07:53:42;;;;;;;;;;;;;;;;;;5076865;28;797;-61
2020/12/03 07:56:25;;;;;;;;;;;;;;;;;;5076451;28;928;-62
2020/12/03 07:58:50;;;;;;;;;;;;;;;;;;5075342;28;1319;-61
2020/12/03 08:01:29;;;;;;;;;;;;;;;;;;5076711;28;1320;-63
2020/12/03 08:03:58;;;;;;;;;;;;;;;;;;5076354;28;1967;-60
2020/12/03 08:06:27;;;;;;;;;;;;;;;;;;5076461;28;882;-56
2020/12/03 08:09:16;;;;;;;;;;;;;;;;;;5075147;28;1419;-63
2020/12/03 08:11:46;;;;;;;;;;;;;;;;;;5076810;28;1412;-62
2020/12/03 08:14:34;;;;;;;;;;;;;;;;;;5076231;28;797;-62
2020/12/03 08:17:00;;;;;;;;;;;;;;;;;;5074873;28;1091;-61
2020/12/03 08:19:30;;;;;;;;;;;;;;;;;;5074947;28;1226;-62
2020/12/03 08:21:55;;;;;;;;;;;;;;;;;;5075053;28;1376;-60
2020/12/03 08:24:28;;;;;;;;;;;;;;;;;;5076268;28;1902;-60
2020/12/03 08:26:57;;;;;;;;;;;;;;;;;;5076214;28;821;-60
2020/12/03 08:29:37;;;;;;;;;;;;;;;;;;5076341;28;907;-61
2020/12/03 08:32:02;;;;;;;;;;;;;;;;;;5075957;28;1353;-62
2020/12/03 08:34:54;;;;;;;;;;;;;;;;;;5076233;28;1062;-61
2020/12/03 08:37:22;;;;;;;;;;;;;;;;;;5105453;28;1418;-64
2020/12/03 08:39:54;;;;;;;;;;;;;;;;;;5074616;28;861;-63
2020/12/03 08:42:19;;;;;;;;;;;;;;;;;;5074699;28;1549;-61
2020/12/03 08:44:45;;;;;;;;;;;;;;;;;;5075796;28;1963;-57
2020/12/03 08:47:16;;;;;;;;;;;;;;;;;;5074283;28;1388;-61
2020/12/03 08:49:42;;;;;;;;;;;;;;;;;;5074481;28;1690;-63
2020/12/03 08:52:08;;;;;;;;;;;;;;;;;;5075868;28;1372;-61
2020/12/03 08:54:33;;;;;;;;;;;;;;;;;;5074611;28;1309;-62
2020/12/03 08:57:02;;;;;;;;;;;;;;;;;;5075283;28;876;-62
2020/12/03 08:59:28;;;;;;;;;;;;;;;;;;5074314;28;842;-60
2020/12/03 09:02:14;;;;;;;;;;;;;;;;;;5075469;28;1412;-59
2020/12/03 09:04:45;;;;;;;;;;;;;;;;;;5067803;28;1906;-61
2020/12/03 09:07:13;;;;;;;;;;;;;;;;;;5075197;28;869;-60
2020/12/03 09:09:41;;;;;;;;;;;;;;;;;;5074061;28;732;-64
2020/12/03 09:12:08;;;;;;;;;;;;;;;;;;5075298;28;1361;-62
2020/12/03 09:14:35;;;;;;;;;;;;;;;;;;5075603;28;884;-62
2020/12/03 09:17:04;;;;;;;;;;;;;;;;;;5073814;28;867;-60
2020/12/03 09:19:29;;;;;;;;;;;;;;;;;;5074146;28;908;-60
2020/12/03 09:21:56;;;;;;;;;;;;;;;;;;5075031;28;1396;-58
2020/12/03 09:24:22;;;;;;;;;;;;;;;;;;5073891;28;1905;-62
2020/12/03 09:26:48;;;;;;;;;;;;;;;;;;5075168;28;805;-58
2020/12/03 09:29:13;;;;;;;;;;;;;;;;;;5074887;28;818;-58
2020/12/03 09:31:39;;;;;;;;;;;;;;;;;;5073551;28;1416;-58
2020/12/03 09:34:06;;;;;;;;;;;;;;;;;;5074679;28;869;-60
2020/12/03 09:36:32;;;;;;;;;;;;;;;;;;5074898;28;960;-64
2020/12/03 09:38:58;;;;;;;;;;;;;;;;;;5073335;28;879;-63
2020/12/03 09:41:24;;;;;;;;;;;;;;;;;;5074865;28;1349;-60
2020/12/03 09:43:53;;;;;;;;;;;;;;;;;;5074569;28;1902;-61
2020/12/03 09:46:28;;;;;;;;;;;;;;;;;;5074662;28;832;-62
2020/12/03 09:48:54;;;;;;;;;;;;;;;;;;5074286;28;873;-60
2020/12/03 09:51:23;;;;;;;;;;;;;;;;;;5073341;28;1479;-60
2020/12/03 09:53:50;;;;;;;;;;;;;;;;;;5074601;28;905;-63
2020/12/03 09:56:15;;;;;;;;;;;;;;;;;;5073193;28;849;-64
2020/12/03 09:58:41;;;;;;;;;;;;;;;;;;5072990;28;1326;-60
2020/12/03 10:01:07;;;;;;;;;;;;;;;;;;5073073;28;1174;-61
2020/12/03 10:04:01;;;;;;;;;;;;;;;;;;5074031;28;1902;-61
2020/12/03 10:06:39;;;;;;;;;;;;;;;;;;5073071;28;1735;-60
2020/12/03 10:09:23;;;;;;;;;;;;;;;;;;5071816;28;2016;-62
2020/12/03 10:12:06;;;;;;;;;;;;;;;;;;5074101;28;1527;-61
2020/12/03 10:14:46;;;;;;;;;;;;;;;;;;5072865;28;1363;-63
2020/12/03 10:17:14;;;;;;;;;;;;;;;;;;5073868;28;947;-62
2020/12/03 10:19:43;;;;;;;;;;;;;;;;;;5073972;28;884;-59
2020/12/03 10:22:14;;;;;;;;;;;;;;;;;;5073859;28;1341;-60
2020/12/03 10:24:53;;;;;;;;;;;;;;;;;;5073954;28;1960;-59
2020/12/03 10:27:22;;;;;;;;;;;;;;;;;;5073858;28;885;-61
2020/12/03 10:30:07;;;;;;;;;;;;;;;;;;5072576;28;893;-62
2020/12/03 10:32:37;;;;;;;;;;;;;;;;;;5071672;28;1572;-59
2020/12/03 10:35:03;;;;;;;;;;;;;;;;;;5072389;28;822;-61
2020/12/03 10:37:35;;;;;;;;;;;;;;;;;;5073801;28;870;-62
2020/12/03 10:40:15;;;;;;;;;;;;;;;;;;5073920;28;813;-61
2020/12/03 10:42:51;;;;;;;;;;;;;;;;;;5072527;28;1897;-59
2020/12/03 10:45:21;;;;;;;;;;;;;;;;;;5073740;28;872;-66
2020/12/03 10:47:50;;;;;;;;;;;;;;;;;;5072455;28;819;-62
2020/12/03 10:50:16;;;;;;;;;;;;;;;;;;5073693;28;829;-64
2020/12/03 10:52:43;;;;;;;;;;;;;;;;;;5073074;28;1754;-65
2020/12/03 10:55:08;;;;;;;;;;;;;;;;;;5071823;28;839;-65
2020/12/03 10:57:34;;;;;;;;;;;;;;;;;;5073677;28;833;-64
2020/12/03 11:00:00;;;;;;;;;;;;;;;;;;5073343;28;880;-64
2020/12/03 11:02:31;;;;;;;;;;;;;;;;;;5072083;28;1764;-65
2020/12/03 11:04:57;;;;;;;;;;;;;;;;;;5073383;28;865;-64
2020/12/03 11:07:22;;;;;;;;;;;;;;;;;;5073283;28;900;-63
2020/12/03 11:09:51;;;;;;;;;;;;;;;;;;5073406;28;817;-64
2020/12/03 11:12:17;;;;;;;;;;;;;;;;;;5055280;28;1464;-63
2020/12/03 11:14:43;;;;;;;;;;;;;;;;;;5073661;28;853;-65
2020/12/03 11:17:14;;;;;;;;;;;;;;;;;;5071676;28;2390;-64
2020/12/03 11:19:41;;;;;;;;;;;;;;;;;;5071991;28;2356;-64
2020/12/03 11:22:09;;;;;;;;;;;;;;;;;;5073366;28;1345;-64
2020/12/03 11:24:44;;;;;;;;;;;;;;;;;;5073848;28;1890;-65
2020/12/03 11:27:09;;;;;;;;;;;;;;;;;;5075352;28;813;-64
2020/12/03 11:29:35;;;;;;;;;;;;;;;;;;5075071;28;1547;-64
2020/12/03 11:32:01;;;;;;;;;;;;;;;;;;5076302;28;1549;-63
2020/12/03 11:34:39;;;;;;;;;;;;;;;;;;5076836;28;1491;-64
2020/12/03 11:37:05;;;;;;;;;;;;;;;;;;5075212;28;1464;-64
2020/12/03 11:39:31;;;;;;;;;;;;;;;;;;5076381;28;1736;-64
2020/12/03 11:42:29;;;;;;;;;;;;;;;;;;5076613;28;1542;-64
2020/12/03 11:49:50;;;;;;;;;;;;;;;;;;5076849;28;758;-64
2020/12/03 11:52:16;;;;;;;;;;;;;;;;;;5076500;28;1539;-64
2020/12/03 11:54:42;;;;;;;;;;;;;;;;;;5076895;28;794;-63
2020/12/03 11:57:09;;;;;;;;;;;;;;;;;;5075205;28;1222;-63
2020/12/03 11:59:35;;;;;;;;;;;;;;;;;;5076792;28;968;-62
2020/12/03 12:02:02;;;;;;;;;;;;;;;;;;5075487;28;1452;-63
2020/12/03 12:12:03;;;;;;;;;;;;;;;;;;5076772;28;1415;-64
2020/12/03 12:14:28;;;;;;;;;;;;;;;;;;5076578;28;790;-63
2020/12/03 12:16:54;;;;;;;;;;;;;;;;;;5076244;28;889;-65
2020/12/03 12:19:20;;;;;;;;;;;;;;;;;;5074861;28;1237;-64
2020/12/03 12:21:46;;;;;;;;;;;;;;;;;;5075320;28;1412;-61
2020/12/03 12:24:11;;;;;;;;;;;;;;;;;;5074849;28;1902;-63
2020/12/03 12:26:36;;;;;;;;;;;;;;;;;;5076294;28;880;-65
2020/12/03 12:29:01;;;;;;;;;;;;;;;;;;5074596;28;1340;-63
2020/12/03 12:31:27;;;;;;;;;;;;;;;;;;5076152;28;1349;-63
2020/12/03 12:33:52;;;;;;;;;;;;;;;;;;5075835;28;821;-63
2020/12/03 12:36:17;;;;;;;;;;;;;;;;;;5075541;28;798;-63
2020/12/03 12:38:43;;;;;;;;;;;;;;;;;;5076086;28;793;-64
2020/12/03 12:41:08;;;;;;;;;;;;;;;;;;5076249;28;850;-63
2020/12/03 12:43:34;;;;;;;;;;;;;;;;;;5075810;28;1899;-63
2020/12/03 12:45:59;;;;;;;;;;;;;;;;;;5074323;28;794;-64
2020/12/03 12:48:24;;;;;;;;;;;;;;;;;;5075963;28;794;-66
2020/12/03 12:50:49;;;;;;;;;;;;;;;;;;5075800;28;927;-61
2020/12/03 12:53:15;;;;;;;;;;;;;;;;;;5075540;28;1361;-62
2020/12/03 12:55:40;;;;;;;;;;;;;;;;;;5075730;28;940;-65
2020/12/03 12:58:05;;;;;;;;;;;;;;;;;;5075353;28;901;-62
2020/12/03 13:00:31;;;;;;;;;;;;;;;;;;5075472;28;885;-64
2020/12/03 13:02:56;;;;;;;;;;;;;;;;;;5075235;28;1886;-63
2020/12/03 13:05:21;;;;;;;;;;;;;;;;;;5075320;28;837;-63
2020/12/03 13:07:46;;;;;;;;;;;;;;;;;;5074284;28;805;-61
2020/12/03 13:10:13;;;;;;;;;;;;;;;;;;5075346;28;821;-63
2020/12/03 13:12:38;;;;;;;;;;;;;;;;;;5075418;28;1337;-63
2020/12/03 13:15:04;;;;;;;;;;;;;;;;;;5075111;28;1320;-63
2020/12/03 13:17:29;;;;;;;;;;;;;;;;;;5075267;28;924;-65
2020/12/03 13:19:54;;;;;;;;;;;;;;;;;;5073698;28;1191;-62
2020/12/03 13:22:19;;;;;;;;;;;;;;;;;;5075373;28;1401;-62
2020/12/03 13:24:45;;;;;;;;;;;;;;;;;;5073635;28;1976;-64
2020/12/03 13:27:10;;;;;;;;;;;;;;;;;;5074780;28;873;-63
2020/12/03 13:29:35;;;;;;;;;;;;;;;;;;5074903;28;900;-63
2020/12/03 13:32:00;;;;;;;;;;;;;;;;;;5074938;28;1400;-63
2020/12/03 13:34:26;;;;;;;;;;;;;;;;;;5075127;28;821;-63
2020/12/03 13:36:51;;;;;;;;;;;;;;;;;;5075004;28;810;-67
2020/12/03 13:39:16;;;;;;;;;;;;;;;;;;5056974;28;1406;-59
2020/12/03 13:41:42;;;;;;;;;;;;;;;;;;5074933;28;1333;-64
2020/12/03 13:44:07;;;;;;;;;;;;;;;;;;5074252;28;1964;-62
2020/12/03 13:46:40;;;;;;;;;;;;;;;;;;5074492;28;879;-66
2020/12/03 13:49:05;;;;;;;;;;;;;;;;;;5073954;28;896;-64
2020/12/03 13:51:31;;;;;;;;;;;;;;;;;;5073505;28;1396;-63
2020/12/03 13:53:56;;;;;;;;;;;;;;;;;;5074320;28;919;-65
2020/12/03 13:56:21;;;;;;;;;;;;;;;;;;5073318;28;1193;-63
2020/12/03 13:58:46;;;;;;;;;;;;;;;;;;5074220;28;806;-61
2020/12/03 14:01:12;;;;;;;;;;;;;;;;;;5073914;28;1396;-65
2020/12/03 14:03:37;;;;;;;;;;;;;;;;;;5073029;28;1970;-64
2020/12/03 14:06:03;;;;;;;;;;;;;;;;;;5072710;28;1361;-66
2020/12/03 14:08:28;;;;;;;;;;;;;;;;;;5074146;28;952;-63
2020/12/03 14:10:53;;;;;;;;;;;;;;;;;;5074132;28;893;-64
2020/12/03 14:13:18;;;;;;;;;;;;;;;;;;5074288;28;1491;-66
2020/12/03 14:15:44;;;;;;;;;;;;;;;;;;5072889;28;909;-64
2020/12/03 14:18:09;;;;;;;;;;;;;;;;;;5073880;28;797;-63
2020/12/03 14:20:35;;;;;;;;;;;;;;;;;;5074462;28;849;-62
2020/12/03 14:23:00;;;;;;;;;;;;;;;;;;5073289;28;1890;-66
2020/12/03 14:25:25;;;;;;;;;;;;;;;;;;5074101;28;867;-65
2020/12/03 14:27:50;;;;;;;;;;;;;;;;;;5072485;28;877;-62
2020/12/03 14:30:16;;;;;;;;;;;;;;;;;;5073724;28;861;-65
2020/12/03 14:32:41;;;;;;;;;;;;;;;;;;5073609;28;1337;-64
2020/12/03 14:35:07;;;;;;;;;;;;;;;;;;5073506;28;833;-63
2020/12/03 14:37:35;;;;;;;;;;;;;;;;;;5072232;28;814;-64
2020/12/03 14:40:05;;;;;;;;;;;;;;;;;;5072448;28;1211;-63
2020/12/03 14:42:30;;;;;;;;;;;;;;;;;;5072408;28;1467;-66
2020/12/03 14:44:56;;;;;;;;;;;;;;;;;;5073064;28;1980;-65
2020/12/03 14:47:21;;;;;;;;;;;;;;;;;;5072313;28;1647;-65
2020/12/03 14:49:47;;;;;;;;;;;;;;;;;;5072007;28;838;-65
2020/12/03 14:52:13;;;;;;;;;;;;;;;;;;5072270;28;1435;-59
2020/12/03 14:54:38;;;;;;;;;;;;;;;;;;5073613;28;869;-67
2020/12/03 14:57:03;;;;;;;;;;;;;;;;;;5073188;28;846;-64
2020/12/03 14:59:29;;;;;;;;;;;;;;;;;;5072905;28;961;-64
2020/12/03 15:01:54;;;;;;;;;;;;;;;;;;5073517;28;1427;-61
2020/12/03 15:04:20;;;;;;;;;;;;;;;;;;5073246;28;1902;-66
2020/12/03 15:06:46;;;;;;;;;;;;;;;;;;5073433;28;813;-65
2020/12/03 15:09:13;;;;;;;;;;;;;;;;;;5073258;28;798;-63
2020/12/03 15:11:44;;;;;;;;;;;;;;;;;;5073322;28;1317;-63
2020/12/03 15:14:09;;;;;;;;;;;;;;;;;;5071732;28;814;-64
2020/12/03 15:16:35;;;;;;;;;;;;;;;;;;5072502;28;801;-63
2020/12/03 15:19:00;;;;;;;;;;;;;;;;;;5072030;28;850;-61
2020/12/03 15:21:25;;;;;;;;;;;;;;;;;;5073651;28;1409;-63
2020/12/03 15:23:50;;;;;;;;;;;;;;;;;;5071722;28;1934;-60
2020/12/03 15:26:18;;;;;;;;;;;;;;;;;;5073551;28;856;-68
2020/12/03 15:28:44;;;;;;;;;;;;;;;;;;5072122;28;1183;-64
2020/12/03 15:31:10;;;;;;;;;;;;;;;;;;5072225;28;852;-68
2020/12/03 15:33:35;;;;;;;;;;;;;;;;;;5073067;28;1032;-68
2020/12/03 15:36:01;;;;;;;;;;;;;;;;;;5072937;28;818;-68
2020/12/03 15:38:26;;;;;;;;;;;;;;;;;;5072049;28;1222;-64
2020/12/03 15:40:52;;;;;;;;;;;;;;;;;;5072054;28;1217;-68
2020/12/03 15:43:17;;;;;;;;;;;;;;;;;;5072954;28;1897;-68
2020/12/03 15:45:42;;;;;;;;;;;;;;;;;;5071612;28;1231;-68
2020/12/03 15:48:21;;;;;;;;;;;;;;;;;;5072834;28;809;-67
2020/12/03 15:50:48;;;;;;;;;;;;;;;;;;5072019;28;1459;-68
2020/12/03 15:53:13;;;;;;;;;;;;;;;;;;5072918;28;1326;-67
2020/12/03 15:55:38;;;;;;;;;;;;;;;;;;5073029;28;991;-68
2020/12/03 15:58:04;;;;;;;;;;;;;;;;;;5072755;28;786;-67
2020/12/03 16:00:29;;;;;;;;;;;;;;;;;;5072899;28;948;-67
2020/12/03 16:02:54;;;;;;;;;;;;;;;;;;5071685;28;1930;-67
2020/12/03 16:05:19;;;;;;;;;;;;;;;;;;5072804;28;1017;-67
2020/12/03 16:07:45;;;;;;;;;;;;;;;;;;5073056;28;797;-67
2020/12/03 16:10:10;;;;;;;;;;;;;;;;;;5072893;28;905;-66
2020/12/03 16:12:35;;;;;;;;;;;;;;;;;;5076194;28;1365;-67
2020/12/03 16:15:00;;;;;;;;;;;;;;;;;;5076299;28;1051;-67
2020/12/03 16:17:25;;;;;;;;;;;;;;;;;;5075503;28;1520;-67
2020/12/03 16:19:51;;;;;;;;;;;;;;;;;;5075474;28;1139;-67
2020/12/03 16:22:16;;;;;;;;;;;;;;;;;;5076457;28;1448;-67
2020/12/03 16:24:42;;;;;;;;;;;;;;;;;;5074866;28;1906;-66
2020/12/03 16:27:08;;;;;;;;;;;;;;;;;;5076072;28;853;-67
2020/12/03 16:29:33;;;;;;;;;;;;;;;;;;5075056;28;2404;-67
2020/12/03 16:31:59;;;;;;;;;;;;;;;;;;5074992;28;1392;-65
2020/12/03 16:34:24;;;;;;;;;;;;;;;;;;5076340;28;849;-67
2020/12/03 16:36:50;;;;;;;;;;;;;;;;;;5076070;28;809;-66
2020/12/03 16:39:15;;;;;;;;;;;;;;;;;;5074597;28;1248;-67
2020/12/03 16:41:42;;;;;;;;;;;;;;;;;;5074874;28;1466;-66
2020/12/03 16:44:08;;;;;;;;;;;;;;;;;;5075750;28;1955;-67
2020/12/03 16:46:33;;;;;;;;;;;;;;;;;;5075701;28;954;-67
2020/12/03 16:59:34;;;;;;;;;;;;;;;;;;4955181;29;1239;-67
2020/12/03 17:41:30;;;;;;;;;;;;;;;;;;4722904;30;1330;-67
2020/12/03 17:43:55;;;;;;;;;;;;;;;;;;4802583;28;1969;-67
2020/12/03 17:46:20;;;;;;;;;;;;;;;;;;5036863;28;1015;-67
2020/12/03 17:48:46;;;;;;;;;;;;;;;;;;5036999;28;2383;-67
2020/12/03 17:51:11;;;;;;;;;;;;;;;;;;5053404;28;1461;-67
2020/12/03 17:53:36;;;;;;;;;;;;;;;;;;5053313;28;1228;-67
2020/12/03 17:56:01;;;;;;;;;;;;;;;;;;5054360;28;920;-67
2020/12/03 17:58:27;;;;;;;;;;;;;;;;;;5054594;28;980;-67
2020/12/03 18:00:52;;;;;;;;;;;;;;;;;;5054501;28;810;-67
2020/12/03 18:03:17;;;;;;;;;;;;;;;;;;5052850;28;1973;-67
2020/12/03 18:05:42;;;;;;;;;;;;;;;;;;5054480;28;802;-67
2020/12/03 18:08:08;;;;;;;;;;;;;;;;;;5052786;28;904;-67
2020/12/03 18:10:33;;;;;;;;;;;;;;;;;;5054683;28;867;-67
2020/12/03 18:12:58;;;;;;;;;;;;;;;;;;5053989;28;1313;-67
2020/12/03 18:15:23;;;;;;;;;;;;;;;;;;5054247;28;967;-67
2020/12/03 18:17:49;;;;;;;;;;;;;;;;;;5054095;28;813;-67
2020/12/03 18:20:14;;;;;;;;;;;;;;;;;;5052995;28;881;-69
2020/12/03 18:22:39;;;;;;;;;;;;;;;;;;5054063;28;1345;-67
2020/12/03 18:25:06;;;;;;;;;;;;;;;;;;5052487;28;1894;-67
2020/12/03 18:27:31;;;;;;;;;;;;;;;;;;5054075;28;940;-67
2020/12/03 18:29:56;;;;;;;;;;;;;;;;;;5053734;28;901;-67
2020/12/03 18:32:21;;;;;;;;;;;;;;;;;;5069543;28;1471;-67
2020/12/03 18:34:46;;;;;;;;;;;;;;;;;;5053605;28;905;-67
2020/12/03 18:37:12;;;;;;;;;;;;;;;;;;5053635;28;790;-67
2020/12/03 18:39:38;;;;;;;;;;;;;;;;;;5052789;28;861;-67
2020/12/03 18:42:04;;;;;;;;;;;;;;;;;;5069077;28;1376;-67
2020/12/03 18:44:29;;;;;;;;;;;;;;;;;;5068217;28;1895;-68
2020/12/03 18:46:54;;;;;;;;;;;;;;;;;;5072367;28;1608;-67
2020/12/03 18:49:20;;;;;;;;;;;;;;;;;;5072462;28;1502;-67
2020/12/03 18:51:46;;;;;;;;;;;;;;;;;;5073835;28;1338;-67
2020/12/03 18:54:11;;;;;;;;;;;;;;;;;;5072055;28;1140;-67
2020/12/03 18:56:36;;;;;;;;;;;;;;;;;;5072420;28;1394;-67
2020/12/03 18:59:02;;;;;;;;;;;;;;;;;;5072431;28;901;-69
2020/12/03 19:01:28;;;;;;;;;;;;;;;;;;5074006;28;1389;-67
2020/12/03 19:03:55;;;;;;;;;;;;;;;;;;5073444;28;1905;-67
2020/12/03 19:06:20;;;;;;;;;;;;;;;;;;5072351;28;1136;-66
2020/12/03 19:08:46;;;;;;;;;;;;;;;;;;5072079;28;1377;-67
2020/12/03 19:11:12;;;;;;;;;;;;;;;;;;5073469;28;1333;-67
2020/12/03 19:13:37;;;;;;;;;;;;;;;;;;5072306;28;1440;-67
2020/12/03 19:16:02;;;;;;;;;;;;;;;;;;5072052;28;873;-67
2020/12/03 19:18:30;;;;;;;;;;;;;;;;;;5072261;28;1325;-67
2020/12/03 19:20:55;;;;;;;;;;;;;;;;;;5073420;28;821;-67
2020/12/03 19:23:20;;;;;;;;;;;;;;;;;;5071988;28;1918;-67
2020/12/03 19:25:45;;;;;;;;;;;;;;;;;;5071138;28;1493;-68
2020/12/03 19:28:11;;;;;;;;;;;;;;;;;;5073012;28;868;-67
2020/12/03 19:30:36;;;;;;;;;;;;;;;;;;5072691;28;1152;-67
2020/12/03 19:33:01;;;;;;;;;;;;;;;;;;5073061;28;1337;-67
2020/12/03 19:35:26;;;;;;;;;;;;;;;;;;5073261;28;880;-67
2020/12/03 19:37:52;;;;;;;;;;;;;;;;;;5073173;28;833;-67
2020/12/03 19:40:17;;;;;;;;;;;;;;;;;;5073590;28;912;-66
2020/12/03 19:42:43;;;;;;;;;;;;;;;;;;5072001;28;1381;-68
2020/12/03 19:45:08;;;;;;;;;;;;;;;;;;5072749;28;1898;-66
2020/12/03 19:47:34;;;;;;;;;;;;;;;;;;5075735;28;809;-67
2020/12/03 19:49:59;;;;;;;;;;;;;;;;;;5077240;28;844;-67
2020/12/03 19:52:25;;;;;;;;;;;;;;;;;;5076924;28;1325;-67
2020/12/03 19:54:50;;;;;;;;;;;;;;;;;;5075636;28;1187;-66
2020/12/03 19:57:16;;;;;;;;;;;;;;;;;;5076820;28;789;-68
2020/12/03 19:59:41;;;;;;;;;;;;;;;;;;5076540;28;842;-67
2020/12/03 20:02:07;;;;;;;;;;;;;;;;;;5076994;28;1417;-67
2020/12/03 20:04:32;;;;;;;;;;;;;;;;;;5075403;28;1897;-66
2020/12/03 20:06:57;;;;;;;;;;;;;;;;;;5075213;28;1869;-66
2020/12/03 20:09:23;;;;;;;;;;;;;;;;;;5075294;28;1313;-67
2020/12/03 20:11:48;;;;;;;;;;;;;;;;;;5075362;28;1435;-67
2020/12/03 20:14:13;;;;;;;;;;;;;;;;;;5076555;28;968;-66
2020/12/03 20:16:38;;;;;;;;;;;;;;;;;;5076585;28;805;-66
2020/12/03 20:19:04;;;;;;;;;;;;;;;;;;5076228;28;817;-67
2020/12/03 20:21:29;;;;;;;;;;;;;;;;;;5075467;28;1860;-68
2020/12/03 20:23:54;;;;;;;;;;;;;;;;;;5076338;28;1893;-66
2020/12/03 20:26:19;;;;;;;;;;;;;;;;;;5076270;28;775;-67
2020/12/03 20:28:45;;;;;;;;;;;;;;;;;;5075033;28;1485;-66
2020/12/03 20:31:20;;;;;;;;;;;;;;;;;;5076015;28;1411;-66
2020/12/03 20:33:46;;;;;;;;;;;;;;;;;;5075081;28;1780;-66
2020/12/03 20:36:15;;;;;;;;;;;;;;;;;;5074728;28;1294;-66
2020/12/03 20:38:40;;;;;;;;;;;;;;;;;;5076302;28;797;-67
2020/12/03 20:41:05;;;;;;;;;;;;;;;;;;5074784;28;1187;-66
2020/12/03 20:43:31;;;;;;;;;;;;;;;;;;5074373;28;1897;-66
2020/12/03 20:45:56;;;;;;;;;;;;;;;;;;5075643;28;968;-66
2020/12/03 20:48:21;;;;;;;;;;;;;;;;;;5074768;28;1199;-67
2020/12/03 20:50:47;;;;;;;;;;;;;;;;;;5076252;28;865;-66
2020/12/03 20:53:17;;;;;;;;;;;;;;;;;;5075306;28;1337;-66
2020/12/03 20:55:42;;;;;;;;;;;;;;;;;;5074433;28;1411;-67
2020/12/03 20:58:08;;;;;;;;;;;;;;;;;;5075769;28;877;-67
2020/12/03 21:00:35;;;;;;;;;;;;;;;;;;5076380;28;1207;-67
2020/12/03 21:03:00;;;;;;;;;;;;;;;;;;5074990;28;1975;-66
2020/12/03 21:05:25;;;;;;;;;;;;;;;;;;5074240;28;1292;-68
2020/12/03 21:07:51;;;;;;;;;;;;;;;;;;5074956;28;1283;-67
2020/12/03 21:10:16;;;;;;;;;;;;;;;;;;5075807;28;882;-67
2020/12/03 21:12:41;;;;;;;;;;;;;;;;;;5074258;28;1471;-67
2020/12/03 21:15:06;;;;;;;;;;;;;;;;;;5073984;28;1204;-66
2020/12/03 21:17:31;;;;;;;;;;;;;;;;;;5075250;28;798;-66
2020/12/03 21:19:57;;;;;;;;;;;;;;;;;;5075415;28;817;-68
2020/12/03 21:22:22;;;;;;;;;;;;;;;;;;5075383;28;1353;-67
2020/12/03 21:24:47;;;;;;;;;;;;;;;;;;5075087;28;1894;-67
2020/12/03 21:27:12;;;;;;;;;;;;;;;;;;5073670;28;948;-68
2020/12/03 21:29:38;;;;;;;;;;;;;;;;;;5073516;28;1555;-66
2020/12/03 21:32:03;;;;;;;;;;;;;;;;;;5075313;28;1294;-66
2020/12/03 21:34:28;;;;;;;;;;;;;;;;;;5075041;28;882;-67
2020/12/03 21:36:54;;;;;;;;;;;;;;;;;;5074873;28;876;-67
2020/12/03 21:39:19;;;;;;;;;;;;;;;;;;5075141;28;797;-66
2020/12/03 21:41:44;;;;;;;;;;;;;;;;;;5074799;28;1370;-67
2020/12/03 21:44:10;;;;;;;;;;;;;;;;;;5074568;28;1967;-66
2020/12/03 21:46:35;;;;;;;;;;;;;;;;;;5075008;28;810;-68
2020/12/03 21:49:00;;;;;;;;;;;;;;;;;;5074798;28;840;-66
2020/12/03 21:51:25;;;;;;;;;;;;;;;;;;5074658;28;1361;-66
2020/12/03 21:53:50;;;;;;;;;;;;;;;;;;5073196;28;1175;-67
2020/12/03 21:56:16;;;;;;;;;;;;;;;;;;5075244;28;794;-67
2020/12/03 21:58:41;;;;;;;;;;;;;;;;;;5074397;28;746;-67
2020/12/03 22:01:09;;;;;;;;;;;;;;;;;;5074615;28;864;-67
2020/12/03 22:03:35;;;;;;;;;;;;;;;;;;5072989;28;1973;-67
2020/12/03 22:06:00;;;;;;;;;;;;;;;;;;5072396;28;1346;-66
2020/12/03 22:08:25;;;;;;;;;;;;;;;;;;5073637;28;1031;-67
2020/12/03 22:10:50;;;;;;;;;;;;;;;;;;5072888;28;1219;-66
2020/12/03 22:13:15;;;;;;;;;;;;;;;;;;5073200;28;1357;-65
2020/12/03 22:15:41;;;;;;;;;;;;;;;;;;5074400;28;888;-66
2020/12/03 22:18:06;;;;;;;;;;;;;;;;;;5072185;28;857;-66
2020/12/03 22:20:31;;;;;;;;;;;;;;;;;;5073085;28;837;-65
2020/12/03 22:22:57;;;;;;;;;;;;;;;;;;5073773;28;1888;-67
2020/12/03 22:25:22;;;;;;;;;;;;;;;;;;5073361;28;1326;-66